Airport View

Enter AWOS ICAO identifier for current METAR.

ex. KFNL

KPCM 290425Z AUTO 14003KT 10SM CLR 24/23 A2994 RMK AO2

29 Sep 2020 04:27

Frequency: 120.025

Phone: 813-764-8259

Other Area AWOS: KLAL - KVDF - KZPH - KTPF

TAF KLAL 282324Z 2900/2924 VRB03KT P6SM VCSH SCT060 BKN120 FM290200 VRB03KT P6SM FEW060 SCT120 BKN250 FM290600 VRB03KT P6SM FEW020 SCT250 FM291000 VRB03KT P6SM SCT008 SCT250 FM291400 22005KT P6SM VCSH SCT020 BKN250 FM291700 23012KT P6SM VCTS SCT035CB BKN100 AMD NOT SKED 2903/2911